sensor_id;sensor_type;location;lat;lon;timestamp;temperature;humidity
51661;DHT22;37741;49.748;8.490;2023-03-18T00:01:56;10.70;76.40
51661;DHT22;37741;49.748;8.490;2023-03-18T00:04:22;10.70;76.50
51661;DHT22;37741;49.748;8.490;2023-03-18T00:06:49;10.70;77.00
51661;DHT22;37741;49.748;8.490;2023-03-18T00:09:15;10.70;76.50
51661;DHT22;37741;49.748;8.490;2023-03-18T00:11:40;10.70;77.20
51661;DHT22;37741;49.748;8.490;2023-03-18T00:14:07;10.70;76.60
51661;DHT22;37741;49.748;8.490;2023-03-18T00:16:34;10.70;77.10
51661;DHT22;37741;49.748;8.490;2023-03-18T00:19:01;10.70;76.40
51661;DHT22;37741;49.748;8.490;2023-03-18T00:21:27;10.70;77.20
51661;DHT22;37741;49.748;8.490;2023-03-18T00:23:54;10.70;77.60
51661;DHT22;37741;49.748;8.490;2023-03-18T00:26:24;10.60;76.80
51661;DHT22;37741;49.748;8.490;2023-03-18T00:28:52;10.70;76.90
51661;DHT22;37741;49.748;8.490;2023-03-18T00:31:19;10.60;76.70
51661;DHT22;37741;49.748;8.490;2023-03-18T00:33:45;10.60;76.70
51661;DHT22;37741;49.748;8.490;2023-03-18T00:36:13;10.60;76.40
51661;DHT22;37741;49.748;8.490;2023-03-18T00:38:40;10.60;76.40
51661;DHT22;37741;49.748;8.490;2023-03-18T00:41:07;10.60;76.20
51661;DHT22;37741;49.748;8.490;2023-03-18T00:43:37;10.60;76.70
51661;DHT22;37741;49.748;8.490;2023-03-18T00:46:28;10.60;77.20
51661;DHT22;37741;49.748;8.490;2023-03-18T00:48:57;10.60;76.80
51661;DHT22;37741;49.748;8.490;2023-03-18T00:51:27;10.60;76.80
51661;DHT22;37741;49.748;8.490;2023-03-18T00:53:55;10.60;78.60
51661;DHT22;37741;49.748;8.490;2023-03-18T00:56:23;10.60;78.90
51661;DHT22;37741;49.748;8.490;2023-03-18T00:58:50;10.60;76.70
51661;DHT22;37741;49.748;8.490;2023-03-18T01:01:17;10.60;78.60
51661;DHT22;37741;49.748;8.490;2023-03-18T01:03:44;10.60;78.50
51661;DHT22;37741;49.748;8.490;2023-03-18T01:06:13;10.50;79.50
51661;DHT22;37741;49.748;8.490;2023-03-18T01:08:40;10.60;76.90
51661;DHT22;37741;49.748;8.490;2023-03-18T01:11:06;10.50;76.70
51661;DHT22;37741;49.748;8.490;2023-03-18T01:13:32;10.50;79.70
51661;DHT22;37741;49.748;8.490;2023-03-18T01:15:58;10.50;77.00
51661;DHT22;37741;49.748;8.490;2023-03-18T01:18:24;10.50;76.70
51661;DHT22;37741;49.748;8.490;2023-03-18T01:20:50;10.50;79.10
51661;DHT22;37741;49.748;8.490;2023-03-18T01:23:16;10.50;77.30
51661;DHT22;37741;49.748;8.490;2023-03-18T01:25:43;10.50;78.50
51661;DHT22;37741;49.748;8.490;2023-03-18T01:28:10;10.50;76.90
51661;DHT22;37741;49.748;8.490;2023-03-18T01:30:36;10.50;78.70
51661;DHT22;37741;49.748;8.490;2023-03-18T01:33:03;10.50;79.00
51661;DHT22;37741;49.748;8.490;2023-03-18T01:35:32;10.50;77.90
51661;DHT22;37741;49.748;8.490;2023-03-18T01:37:58;10.50;78.60
51661;DHT22;37741;49.748;8.490;2023-03-18T01:40:25;10.50;78.30
51661;DHT22;37741;49.748;8.490;2023-03-18T01:42:58;10.50;77.50
51661;DHT22;37741;49.748;8.490;2023-03-18T01:45:28;10.40;77.20
51661;DHT22;37741;49.748;8.490;2023-03-18T01:47:55;10.50;77.00
51661;DHT22;37741;49.748;8.490;2023-03-18T01:50:25;10.40;76.90
51661;DHT22;37741;49.748;8.490;2023-03-18T01:52:59;10.40;76.80
51661;DHT22;37741;49.748;8.490;2023-03-18T01:55:28;10.40;76.90
51661;DHT22;37741;49.748;8.490;2023-03-18T01:57:55;10.50;76.80
51661;DHT22;37741;49.748;8.490;2023-03-18T02:00:21;10.40;78.80
51661;DHT22;37741;49.748;8.490;2023-03-18T02:02:49;10.40;78.30
51661;DHT22;37741;49.748;8.490;2023-03-18T02:05:21;10.50;78.70
51661;DHT22;37741;49.748;8.490;2023-03-18T02:07:47;10.40;78.30
51661;DHT22;37741;49.748;8.490;2023-03-18T02:10:16;10.40;78.60
51661;DHT22;37741;49.748;8.490;2023-03-18T02:12:45;10.40;77.50
51661;DHT22;37741;49.748;8.490;2023-03-18T02:15:16;10.40;77.60
51661;DHT22;37741;49.748;8.490;2023-03-18T02:17:46;10.40;77.90
51661;DHT22;37741;49.748;8.490;2023-03-18T02:25:49;10.40;77.80
51661;DHT22;37741;49.748;8.490;2023-03-18T02:28:23;10.40;78.90
51661;DHT22;37741;49.748;8.490;2023-03-18T02:30:53;10.40;79.30
51661;DHT22;37741;49.748;8.490;2023-03-18T02:33:21;10.40;79.10
51661;DHT22;37741;49.748;8.490;2023-03-18T02:35:55;10.30;78.40
51661;DHT22;37741;49.748;8.490;2023-03-18T02:38:21;10.30;78.30
51661;DHT22;37741;49.748;8.490;2023-03-18T02:40:47;10.40;78.90
51661;DHT22;37741;49.748;8.490;2023-03-18T02:43:25;10.30;78.10
51661;DHT22;37741;49.748;8.490;2023-03-18T02:48:31;10.30;79.30
51661;DHT22;37741;49.748;8.490;2023-03-18T02:50:58;10.30;78.00
51661;DHT22;37741;49.748;8.490;2023-03-18T02:53:24;10.30;77.60
51661;DHT22;37741;49.748;8.490;2023-03-18T02:55:50;10.30;77.70
51661;DHT22;37741;49.748;8.490;2023-03-18T02:58:16;10.30;80.30
51661;DHT22;37741;49.748;8.490;2023-03-18T03:00:42;10.30;80.40
51661;DHT22;37741;49.748;8.490;2023-03-18T03:03:10;10.30;77.90
51661;DHT22;37741;49.748;8.490;2023-03-18T03:05:36;10.30;80.00
51661;DHT22;37741;49.748;8.490;2023-03-18T03:08:02;10.30;78.80
51661;DHT22;37741;49.748;8.490;2023-03-18T03:10:28;10.30;80.20
51661;DHT22;37741;49.748;8.490;2023-03-18T03:12:55;10.30;81.20
51661;DHT22;37741;49.748;8.490;2023-03-18T03:15:21;10.30;78.50
51661;DHT22;37741;49.748;8.490;2023-03-18T03:17:47;10.20;79.30
51661;DHT22;37741;49.748;8.490;2023-03-18T03:20:14;10.30;77.90
51661;DHT22;37741;49.748;8.490;2023-03-18T03:22:40;10.30;79.00
51661;DHT22;37741;49.748;8.490;2023-03-18T03:25:08;10.30;78.30
51661;DHT22;37741;49.748;8.490;2023-03-18T03:27:34;10.20;80.00
51661;DHT22;37741;49.748;8.490;2023-03-18T03:30:01;10.20;82.00
51661;DHT22;37741;49.748;8.490;2023-03-18T03:32:26;10.20;80.20
51661;DHT22;37741;49.748;8.490;2023-03-18T03:34:53;10.20;78.30
51661;DHT22;37741;49.748;8.490;2023-03-18T03:37:19;10.20;80.60
51661;DHT22;37741;49.748;8.490;2023-03-18T03:39:44;10.20;78.30
51661;DHT22;37741;49.748;8.490;2023-03-18T03:42:10;10.20;78.00
51661;DHT22;37741;49.748;8.490;2023-03-18T03:44:36;10.20;78.00
51661;DHT22;37741;49.748;8.490;2023-03-18T03:47:02;10.20;77.80
51661;DHT22;37741;49.748;8.490;2023-03-18T03:49:28;10.20;77.70
51661;DHT22;37741;49.748;8.490;2023-03-18T03:51:54;10.20;77.80
51661;DHT22;37741;49.748;8.490;2023-03-18T03:54:19;10.20;77.70
51661;DHT22;37741;49.748;8.490;2023-03-18T03:56:45;10.10;77.80
51661;DHT22;37741;49.748;8.490;2023-03-18T03:59:12;10.20;78.30
51661;DHT22;37741;49.748;8.490;2023-03-18T04:01:38;10.10;78.70
51661;DHT22;37741;49.748;8.490;2023-03-18T04:04:05;10.20;78.70
51661;DHT22;37741;49.748;8.490;2023-03-18T04:06:30;10.20;78.10
51661;DHT22;37741;49.748;8.490;2023-03-18T04:08:56;10.10;77.80
51661;DHT22;37741;49.748;8.490;2023-03-18T04:11:22;10.10;77.80
51661;DHT22;37741;49.748;8.490;2023-03-18T04:13:48;10.10;78.40
51661;DHT22;37741;49.748;8.490;2023-03-18T04:16:14;10.10;78.20
51661;DHT22;37741;49.748;8.490;2023-03-18T04:18:41;10.10;78.80
51661;DHT22;37741;49.748;8.490;2023-03-18T04:21:07;10.10;79.90
51661;DHT22;37741;49.748;8.490;2023-03-18T04:23:33;10.10;79.90
51661;DHT22;37741;49.748;8.490;2023-03-18T04:25:59;10.10;78.90
51661;DHT22;37741;49.748;8.490;2023-03-18T04:28:25;10.10;78.70
51661;DHT22;37741;49.748;8.490;2023-03-18T04:30:51;10.10;79.80
51661;DHT22;37741;49.748;8.490;2023-03-18T04:33:17;10.10;79.40
51661;DHT22;37741;49.748;8.490;2023-03-18T04:35:43;10.10;78.80
51661;DHT22;37741;49.748;8.490;2023-03-18T04:38:09;10.10;79.70
51661;DHT22;37741;49.748;8.490;2023-03-18T04:40:35;10.10;79.30
51661;DHT22;37741;49.748;8.490;2023-03-18T04:43:01;10.10;78.90
51661;DHT22;37741;49.748;8.490;2023-03-18T04:45:26;10.00;78.40
51661;DHT22;37741;49.748;8.490;2023-03-18T04:47:52;10.00;78.40
51661;DHT22;37741;49.748;8.490;2023-03-18T04:50:18;10.00;78.40
51661;DHT22;37741;49.748;8.490;2023-03-18T04:52:45;10.00;78.60
51661;DHT22;37741;49.748;8.490;2023-03-18T04:55:11;10.00;78.60
51661;DHT22;37741;49.748;8.490;2023-03-18T04:57:38;10.00;78.70
51661;DHT22;37741;49.748;8.490;2023-03-18T05:00:09;10.00;78.60
51661;DHT22;37741;49.748;8.490;2023-03-18T05:02:40;9.90;78.60
51661;DHT22;37741;49.748;8.490;2023-03-18T05:05:06;10.00;78.70
51661;DHT22;37741;49.748;8.490;2023-03-18T05:07:32;9.90;78.50
51661;DHT22;37741;49.748;8.490;2023-03-18T05:09:58;9.90;78.70
51661;DHT22;37741;49.748;8.490;2023-03-18T05:12:24;9.90;78.60
51661;DHT22;37741;49.748;8.490;2023-03-18T05:14:50;9.90;78.70
51661;DHT22;37741;49.748;8.490;2023-03-18T05:17:16;9.90;78.70
51661;DHT22;37741;49.748;8.490;2023-03-18T05:19:46;9.90;78.90
51661;DHT22;37741;49.748;8.490;2023-03-18T05:22:13;9.90;78.80
51661;DHT22;37741;49.748;8.490;2023-03-18T05:24:40;9.80;78.70
51661;DHT22;37741;49.748;8.490;2023-03-18T05:27:08;9.80;78.60
51661;DHT22;37741;49.748;8.490;2023-03-18T05:29:36;9.80;78.90
51661;DHT22;37741;49.748;8.490;2023-03-18T05:32:03;9.80;78.60
51661;DHT22;37741;49.748;8.490;2023-03-18T05:34:35;9.80;78.90
51661;DHT22;37741;49.748;8.490;2023-03-18T05:37:05;9.80;78.90
51661;DHT22;37741;49.748;8.490;2023-03-18T05:39:31;9.80;79.00
51661;DHT22;37741;49.748;8.490;2023-03-18T05:41:58;9.80;78.90
51661;DHT22;37741;49.748;8.490;2023-03-18T05:44:24;9.80;79.40
51661;DHT22;37741;49.748;8.490;2023-03-18T05:46:50;9.80;79.10
51661;DHT22;37741;49.748;8.490;2023-03-18T05:49:18;9.80;79.20
51661;DHT22;37741;49.748;8.490;2023-03-18T05:51:44;9.70;79.50
51661;DHT22;37741;49.748;8.490;2023-03-18T05:54:11;9.70;78.80
51661;DHT22;37741;49.748;8.490;2023-03-18T05:56:36;9.70;79.00
51661;DHT22;37741;49.748;8.490;2023-03-18T05:59:02;9.70;80.10
51661;DHT22;37741;49.748;8.490;2023-03-18T06:01:28;9.70;79.20
51661;DHT22;37741;49.748;8.490;2023-03-18T06:03:55;9.70;79.50
51661;DHT22;37741;49.748;8.490;2023-03-18T06:06:21;9.70;79.30
51661;DHT22;37741;49.748;8.490;2023-03-18T06:08:47;9.70;79.20
51661;DHT22;37741;49.748;8.490;2023-03-18T06:11:13;9.70;79.70
51661;DHT22;37741;49.748;8.490;2023-03-18T06:13:39;9.70;79.30
51661;DHT22;37741;49.748;8.490;2023-03-18T06:16:06;9.70;79.20
51661;DHT22;37741;49.748;8.490;2023-03-18T06:18:33;9.70;79.00
51661;DHT22;37741;49.748;8.490;2023-03-18T06:20:59;9.70;79.10
51661;DHT22;37741;49.748;8.490;2023-03-18T06:23:25;9.70;79.00
51661;DHT22;37741;49.748;8.490;2023-03-18T06:25:52;9.70;79.00
51661;DHT22;37741;49.748;8.490;2023-03-18T06:28:17;9.70;78.80
51661;DHT22;37741;49.748;8.490;2023-03-18T06:30:43;9.70;78.80
51661;DHT22;37741;49.748;8.490;2023-03-18T06:33:09;9.70;78.70
51661;DHT22;37741;49.748;8.490;2023-03-18T06:35:35;9.70;78.70
51661;DHT22;37741;49.748;8.490;2023-03-18T06:38:01;9.60;78.50
51661;DHT22;37741;49.748;8.490;2023-03-18T06:40:27;9.70;78.60
51661;DHT22;37741;49.748;8.490;2023-03-18T06:42:53;9.60;78.60
51661;DHT22;37741;49.748;8.490;2023-03-18T06:45:19;9.60;78.70
51661;DHT22;37741;49.748;8.490;2023-03-18T06:47:45;9.60;78.60
51661;DHT22;37741;49.748;8.490;2023-03-18T06:50:11;9.60;78.50
51661;DHT22;37741;49.748;8.490;2023-03-18T06:52:38;9.60;78.50
51661;DHT22;37741;49.748;8.490;2023-03-18T06:55:04;9.60;78.70
51661;DHT22;37741;49.748;8.490;2023-03-18T06:57:31;9.60;78.60
51661;DHT22;37741;49.748;8.490;2023-03-18T06:59:57;9.60;78.60
51661;DHT22;37741;49.748;8.490;2023-03-18T07:02:23;9.60;78.60
51661;DHT22;37741;49.748;8.490;2023-03-18T07:04:50;9.60;78.60
51661;DHT22;37741;49.748;8.490;2023-03-18T07:07:16;9.60;78.60
51661;DHT22;37741;49.748;8.490;2023-03-18T07:09:43;9.60;78.60
51661;DHT22;37741;49.748;8.490;2023-03-18T07:12:12;9.60;78.60
51661;DHT22;37741;49.748;8.490;2023-03-18T07:14:39;9.60;78.60
51661;DHT22;37741;49.748;8.490;2023-03-18T07:17:05;9.60;78.40
51661;DHT22;37741;49.748;8.490;2023-03-18T07:19:31;9.60;78.50
51661;DHT22;37741;49.748;8.490;2023-03-18T07:21:58;9.60;78.40
51661;DHT22;37741;49.748;8.490;2023-03-18T07:24:24;9.60;78.60
51661;DHT22;37741;49.748;8.490;2023-03-18T07:26:50;9.60;78.60
51661;DHT22;37741;49.748;8.490;2023-03-18T07:29:17;9.60;79.10
51661;DHT22;37741;49.748;8.490;2023-03-18T07:31:43;9.60;79.20
51661;DHT22;37741;49.748;8.490;2023-03-18T07:34:09;9.60;78.80
51661;DHT22;37741;49.748;8.490;2023-03-18T07:36:35;9.70;78.90
51661;DHT22;37741;49.748;8.490;2023-03-18T07:39:02;9.60;78.60
51661;DHT22;37741;49.748;8.490;2023-03-18T07:41:28;9.60;78.80
51661;DHT22;37741;49.748;8.490;2023-03-18T07:43:54;9.60;78.80
51661;DHT22;37741;49.748;8.490;2023-03-18T07:46:20;9.70;78.80
51661;DHT22;37741;49.748;8.490;2023-03-18T07:48:46;9.70;79.10
51661;DHT22;37741;49.748;8.490;2023-03-18T07:51:12;9.70;79.10
51661;DHT22;37741;49.748;8.490;2023-03-18T07:53:39;9.70;79.30
51661;DHT22;37741;49.748;8.490;2023-03-18T07:56:06;9.70;78.70
51661;DHT22;37741;49.748;8.490;2023-03-18T07:58:33;9.80;78.70
51661;DHT22;37741;49.748;8.490;2023-03-18T08:00:59;9.80;78.60
51661;DHT22;37741;49.748;8.490;2023-03-18T08:03:27;9.80;78.60
51661;DHT22;37741;49.748;8.490;2023-03-18T08:05:53;9.80;77.90
51661;DHT22;37741;49.748;8.490;2023-03-18T08:08:20;9.90;77.30
51661;DHT22;37741;49.748;8.490;2023-03-18T08:10:47;9.90;76.90
51661;DHT22;37741;49.748;8.490;2023-03-18T08:13:12;9.90;76.80
51661;DHT22;37741;49.748;8.490;2023-03-18T08:15:39;9.90;76.70
51661;DHT22;37741;49.748;8.490;2023-03-18T08:18:04;10.00;76.60
51661;DHT22;37741;49.748;8.490;2023-03-18T08:20:30;10.00;76.10
51661;DHT22;37741;49.748;8.490;2023-03-18T08:22:56;10.00;76.40
51661;DHT22;37741;49.748;8.490;2023-03-18T08:25:22;10.10;76.50
51661;DHT22;37741;49.748;8.490;2023-03-18T08:27:48;10.00;76.30
51661;DHT22;37741;49.748;8.490;2023-03-18T08:30:14;10.10;76.60
51661;DHT22;37741;49.748;8.490;2023-03-18T08:32:41;10.10;76.10
51661;DHT22;37741;49.748;8.490;2023-03-18T08:35:07;10.10;75.90
51661;DHT22;37741;49.748;8.490;2023-03-18T08:37:34;10.20;75.70
51661;DHT22;37741;49.748;8.490;2023-03-18T08:40:01;10.10;75.10
51661;DHT22;37741;49.748;8.490;2023-03-18T08:42:26;10.20;74.80
51661;DHT22;37741;49.748;8.490;2023-03-18T08:44:52;10.20;74.70
51661;DHT22;37741;49.748;8.490;2023-03-18T08:47:18;10.20;74.80
51661;DHT22;37741;49.748;8.490;2023-03-18T08:49:44;10.20;74.40
51661;DHT22;37741;49.748;8.490;2023-03-18T08:52:10;10.20;74.00
51661;DHT22;37741;49.748;8.490;2023-03-18T08:54:36;10.30;74.20
51661;DHT22;37741;49.748;8.490;2023-03-18T08:57:02;10.30;74.20
51661;DHT22;37741;49.748;8.490;2023-03-18T08:59:28;10.30;74.20
51661;DHT22;37741;49.748;8.490;2023-03-18T09:01:53;10.30;73.80
51661;DHT22;37741;49.748;8.490;2023-03-18T09:04:19;10.30;73.70
51661;DHT22;37741;49.748;8.490;2023-03-18T09:06:45;10.40;73.90
51661;DHT22;37741;49.748;8.490;2023-03-18T09:09:11;10.40;74.10
51661;DHT22;37741;49.748;8.490;2023-03-18T09:11:37;10.40;73.80
51661;DHT22;37741;49.748;8.490;2023-03-18T09:14:03;10.50;74.10
51661;DHT22;37741;49.748;8.490;2023-03-18T09:16:29;10.50;74.20
51661;DHT22;37741;49.748;8.490;2023-03-18T09:18:55;10.50;74.20
51661;DHT22;37741;49.748;8.490;2023-03-18T09:21:21;10.50;74.00
51661;DHT22;37741;49.748;8.490;2023-03-18T09:23:47;10.50;74.20
51661;DHT22;37741;49.748;8.490;2023-03-18T09:26:14;10.50;73.90
51661;DHT22;37741;49.748;8.490;2023-03-18T09:28:39;10.60;74.10
51661;DHT22;37741;49.748;8.490;2023-03-18T09:31:05;10.60;74.20
51661;DHT22;37741;49.748;8.490;2023-03-18T09:33:31;10.60;73.60
51661;DHT22;37741;49.748;8.490;2023-03-18T09:35:56;10.60;73.90
51661;DHT22;37741;49.748;8.490;2023-03-18T09:38:22;10.70;74.30
51661;DHT22;37741;49.748;8.490;2023-03-18T09:41:06;10.70;73.50
51661;DHT22;37741;49.748;8.490;2023-03-18T09:46:12;10.70;73.90
51661;DHT22;37741;49.748;8.490;2023-03-18T09:54:21;10.70;72.80
51661;DHT22;37741;49.748;8.490;2023-03-18T09:56:51;10.70;72.40
51661;DHT22;37741;49.748;8.490;2023-03-18T09:59:22;10.80;72.50
51661;DHT22;37741;49.748;8.490;2023-03-18T10:01:52;10.80;71.90
51661;DHT22;37741;49.748;8.490;2023-03-18T10:04:25;10.90;72.50
51661;DHT22;37741;49.748;8.490;2023-03-18T10:07:06;10.90;72.00
51661;DHT22;37741;49.748;8.490;2023-03-18T10:09:43;10.90;72.60
51661;DHT22;37741;49.748;8.490;2023-03-18T10:12:30;11.00;72.60
51661;DHT22;37741;49.748;8.490;2023-03-18T10:17:38;11.00;72.00
51661;DHT22;37741;49.748;8.490;2023-03-18T10:20:18;11.00;72.10
51661;DHT22;37741;49.748;8.490;2023-03-18T10:22:49;11.10;71.80
51661;DHT22;37741;49.748;8.490;2023-03-18T10:25:47;11.10;71.40
51661;DHT22;37741;49.748;8.490;2023-03-18T10:28:50;11.10;71.70
51661;DHT22;37741;49.748;8.490;2023-03-18T10:34:26;11.20;71.70
51661;DHT22;37741;49.748;8.490;2023-03-18T10:37:05;11.30;71.50
51661;DHT22;37741;49.748;8.490;2023-03-18T10:39:33;11.30;72.20
51661;DHT22;37741;49.748;8.490;2023-03-18T10:42:09;11.30;72.60
51661;DHT22;37741;49.748;8.490;2023-03-18T10:44:40;11.30;72.10
51661;DHT22;37741;49.748;8.490;2023-03-18T10:47:27;11.40;71.90
51661;DHT22;37741;49.748;8.490;2023-03-18T10:52:36;11.50;71.50
51661;DHT22;37741;49.748;8.490;2023-03-18T10:55:03;11.50;70.90
51661;DHT22;37741;49.748;8.490;2023-03-18T10:57:29;11.50;70.80
51661;DHT22;37741;49.748;8.490;2023-03-18T10:59:56;11.60;70.20
51661;DHT22;37741;49.748;8.490;2023-03-18T11:02:32;11.60;70.20
51661;DHT22;37741;49.748;8.490;2023-03-18T11:08:00;11.70;70.40
51661;DHT22;37741;49.748;8.490;2023-03-18T11:10:32;11.90;69.40
51661;DHT22;37741;49.748;8.490;2023-03-18T11:13:00;11.90;69.20
51661;DHT22;37741;49.748;8.490;2023-03-18T11:15:28;12.00;69.70
51661;DHT22;37741;49.748;8.490;2023-03-18T11:17:58;12.00;69.60
51661;DHT22;37741;49.748;8.490;2023-03-18T11:20:36;12.10;69.20
51661;DHT22;37741;49.748;8.490;2023-03-18T11:23:18;12.20;69.30
51661;DHT22;37741;49.748;8.490;2023-03-18T11:26:01;12.20;69.00
51661;DHT22;37741;49.748;8.490;2023-03-18T11:28:28;12.20;68.80
51661;DHT22;37741;49.748;8.490;2023-03-18T11:30:56;12.30;68.80
51661;DHT22;37741;49.748;8.490;2023-03-18T11:33:24;12.30;68.70
51661;DHT22;37741;49.748;8.490;2023-03-18T11:36:03;12.40;68.60
51661;DHT22;37741;49.748;8.490;2023-03-18T11:38:32;12.40;68.90
51661;DHT22;37741;49.748;8.490;2023-03-18T11:41:15;12.50;69.10
51661;DHT22;37741;49.748;8.490;2023-03-18T11:43:59;12.50;68.90
51661;DHT22;37741;49.748;8.490;2023-03-18T11:46:33;12.60;68.60
51661;DHT22;37741;49.748;8.490;2023-03-18T11:49:00;12.60;68.50
51661;DHT22;37741;49.748;8.490;2023-03-18T11:51:46;12.70;69.10
51661;DHT22;37741;49.748;8.490;2023-03-18T11:57:16;12.80;69.80
51661;DHT22;37741;49.748;8.490;2023-03-18T12:16:21;13.10;69.20
51661;DHT22;37741;49.748;8.490;2023-03-18T12:24:49;13.30;68.80
51661;DHT22;37741;49.748;8.490;2023-03-18T12:27:21;13.40;68.50
51661;DHT22;37741;49.748;8.490;2023-03-18T12:30:10;13.50;68.00
51661;DHT22;37741;49.748;8.490;2023-03-18T12:32:44;13.60;67.80
51661;DHT22;37741;49.748;8.490;2023-03-18T12:38:23;13.70;68.10
51661;DHT22;37741;49.748;8.490;2023-03-18T12:41:22;13.80;68.30
51661;DHT22;37741;49.748;8.490;2023-03-18T12:44:04;13.90;67.60
51661;DHT22;37741;49.748;8.490;2023-03-18T12:49:23;14.00;67.00
51661;DHT22;37741;49.748;8.490;2023-03-18T12:51:58;14.00;66.50
51661;DHT22;37741;49.748;8.490;2023-03-18T12:54:47;14.10;66.40
51661;DHT22;37741;49.748;8.490;2023-03-18T12:57:49;14.20;66.20
51661;DHT22;37741;49.748;8.490;2023-03-18T13:00:20;14.20;66.10
51661;DHT22;37741;49.748;8.490;2023-03-18T13:03:19;14.30;65.60
51661;DHT22;37741;49.748;8.490;2023-03-18T13:05:50;14.30;65.80
51661;DHT22;37741;49.748;8.490;2023-03-18T13:10:55;14.40;65.60
51661;DHT22;37741;49.748;8.490;2023-03-18T13:13:23;14.40;65.00
51661;DHT22;37741;49.748;8.490;2023-03-18T13:15:51;14.40;65.10
51661;DHT22;37741;49.748;8.490;2023-03-18T13:18:38;14.50;64.90
51661;DHT22;37741;49.748;8.490;2023-03-18T13:21:10;14.50;64.00
51661;DHT22;37741;49.748;8.490;2023-03-18T13:26:24;14.60;63.70
51661;DHT22;37741;49.748;8.490;2023-03-18T13:32:16;14.70;63.20
51661;DHT22;37741;49.748;8.490;2023-03-18T13:42:47;14.90;63.60
51661;DHT22;37741;49.748;8.490;2023-03-18T13:45:31;15.00;63.40
51661;DHT22;37741;49.748;8.490;2023-03-18T13:48:05;15.00;62.80
51661;DHT22;37741;49.748;8.490;2023-03-18T13:50:38;15.10;63.20
51661;DHT22;37741;49.748;8.490;2023-03-18T13:53:16;15.20;63.10
51661;DHT22;37741;49.748;8.490;2023-03-18T13:55:58;15.30;63.20
51661;DHT22;37741;49.748;8.490;2023-03-18T14:03:21;15.40;61.70
51661;DHT22;37741;49.748;8.490;2023-03-18T14:14:01;15.60;62.10
51661;DHT22;37741;49.748;8.490;2023-03-18T14:19:30;15.70;61.30
51661;DHT22;37741;49.748;8.490;2023-03-18T14:22:16;15.90;60.60
51661;DHT22;37741;49.748;8.490;2023-03-18T14:24:44;15.90;61.60
51661;DHT22;37741;49.748;8.490;2023-03-18T14:27:16;15.90;62.30
51661;DHT22;37741;49.748;8.490;2023-03-18T14:29:45;16.00;61.80
51661;DHT22;37741;49.748;8.490;2023-03-18T14:32:35;16.00;62.10
51661;DHT22;37741;49.748;8.490;2023-03-18T14:35:23;16.10;61.10
51661;DHT22;37741;49.748;8.490;2023-03-18T14:38:05;16.10;59.20
51661;DHT22;37741;49.748;8.490;2023-03-18T14:40:36;16.20;58.90
51661;DHT22;37741;49.748;8.490;2023-03-18T14:45:43;16.30;59.20
51661;DHT22;37741;49.748;8.490;2023-03-18T14:48:19;16.30;59.00
51661;DHT22;37741;49.748;8.490;2023-03-18T14:50:52;16.40;59.60
51661;DHT22;37741;49.748;8.490;2023-03-18T14:55:53;16.50;58.10
51661;DHT22;37741;49.748;8.490;2023-03-18T14:58:22;16.50;58.20
51661;DHT22;37741;49.748;8.490;2023-03-18T15:00:51;16.50;58.40
51661;DHT22;37741;49.748;8.490;2023-03-18T15:03:26;16.60;58.50
51661;DHT22;37741;49.748;8.490;2023-03-18T15:05:57;16.60;59.50
51661;DHT22;37741;49.748;8.490;2023-03-18T15:08:27;16.60;59.80
51661;DHT22;37741;49.748;8.490;2023-03-18T15:10:53;16.60;59.60
51661;DHT22;37741;49.748;8.490;2023-03-18T15:13:22;16.60;59.30
51661;DHT22;37741;49.748;8.490;2023-03-18T15:15:48;16.70;58.60
51661;DHT22;37741;49.748;8.490;2023-03-18T15:18:18;16.70;59.80
51661;DHT22;37741;49.748;8.490;2023-03-18T15:20:48;16.70;59.30
51661;DHT22;37741;49.748;8.490;2023-03-18T15:23:16;16.70;59.10
51661;DHT22;37741;49.748;8.490;2023-03-18T15:25:44;16.70;59.60
51661;DHT22;37741;49.748;8.490;2023-03-18T15:28:22;16.70;58.40
51661;DHT22;37741;49.748;8.490;2023-03-18T15:30:54;16.70;59.40
51661;DHT22;37741;49.748;8.490;2023-03-18T15:33:24;16.80;60.30
51661;DHT22;37741;49.748;8.490;2023-03-18T15:35:54;16.80;60.20
51661;DHT22;37741;49.748;8.490;2023-03-18T15:38:25;16.80;58.60
51661;DHT22;37741;49.748;8.490;2023-03-18T15:40:54;16.80;58.40
51661;DHT22;37741;49.748;8.490;2023-03-18T15:43:32;16.80;58.80
51661;DHT22;37741;49.748;8.490;2023-03-18T15:46:06;16.80;58.70
51661;DHT22;37741;49.748;8.490;2023-03-18T15:48:37;16.80;59.10
51661;DHT22;37741;49.748;8.490;2023-03-18T15:51:05;16.80;59.30
51661;DHT22;37741;49.748;8.490;2023-03-18T15:53:43;16.90;58.90
51661;DHT22;37741;49.748;8.490;2023-03-18T15:56:15;16.90;59.90
51661;DHT22;37741;49.748;8.490;2023-03-18T15:58:42;17.00;59.10
51661;DHT22;37741;49.748;8.490;2023-03-18T16:01:14;17.00;57.40
51661;DHT22;37741;49.748;8.490;2023-03-18T16:03:42;17.10;57.00
51661;DHT22;37741;49.748;8.490;2023-03-18T16:06:08;17.10;57.20
51661;DHT22;37741;49.748;8.490;2023-03-18T16:08:36;17.20;56.80
51661;DHT22;37741;49.748;8.490;2023-03-18T16:11:02;17.20;56.90
51661;DHT22;37741;49.748;8.490;2023-03-18T16:13:32;17.20;56.90
51661;DHT22;37741;49.748;8.490;2023-03-18T16:15:59;17.30;57.70
51661;DHT22;37741;49.748;8.490;2023-03-18T16:18:24;17.30;56.50
51661;DHT22;37741;49.748;8.490;2023-03-18T16:20:50;17.30;56.80
51661;DHT22;37741;49.748;8.490;2023-03-18T16:23:18;17.30;56.50
51661;DHT22;37741;49.748;8.490;2023-03-18T16:25:46;17.30;58.20
51661;DHT22;37741;49.748;8.490;2023-03-18T16:28:25;17.30;57.30
51661;DHT22;37741;49.748;8.490;2023-03-18T16:30:52;17.30;58.40
51661;DHT22;37741;49.748;8.490;2023-03-18T16:33:20;17.30;57.50
51661;DHT22;37741;49.748;8.490;2023-03-18T16:35:57;17.30;58.10
51661;DHT22;37741;49.748;8.490;2023-03-18T16:38:24;17.30;58.70
51661;DHT22;37741;49.748;8.490;2023-03-18T16:40:50;17.40;60.20
51661;DHT22;37741;49.748;8.490;2023-03-18T16:43:21;17.40;57.90
51661;DHT22;37741;49.748;8.490;2023-03-18T16:45:49;17.40;59.30
51661;DHT22;37741;49.748;8.490;2023-03-18T16:48:18;17.40;58.80
51661;DHT22;37741;49.748;8.490;2023-03-18T16:50:45;17.50;58.50
51661;DHT22;37741;49.748;8.490;2023-03-18T16:55:44;17.50;57.90
51661;DHT22;37741;49.748;8.490;2023-03-18T16:58:17;17.50;57.10
51661;DHT22;37741;49.748;8.490;2023-03-18T17:00:44;17.50;57.50
51661;DHT22;37741;49.748;8.490;2023-03-18T17:03:15;17.40;58.10
51661;DHT22;37741;49.748;8.490;2023-03-18T17:05:43;17.40;58.10
51661;DHT22;37741;49.748;8.490;2023-03-18T17:08:09;17.40;58.30
51661;DHT22;37741;49.748;8.490;2023-03-18T17:10:36;17.40;57.90
51661;DHT22;37741;49.748;8.490;2023-03-18T17:13:04;17.40;57.90
51661;DHT22;37741;49.748;8.490;2023-03-18T17:15:36;17.40;58.60
51661;DHT22;37741;49.748;8.490;2023-03-18T17:18:03;17.30;58.40
51661;DHT22;37741;49.748;8.490;2023-03-18T17:20:30;17.30;59.40
51661;DHT22;37741;49.748;8.490;2023-03-18T17:22:57;17.20;59.50
51661;DHT22;37741;49.748;8.490;2023-03-18T17:25:24;17.20;58.90
51661;DHT22;37741;49.748;8.490;2023-03-18T17:27:54;17.20;60.30